Terminal Aerodrome Forecast
Issued by NWS Charleston, WV

Current Version | Previous Version | Graphics & Text | Print | Product List | Glossary On
Versions: 1 2 3 4 5 6 7 8 9 10 11 12 13 14 15 16 17 18 19 20 21
000
FTUS41 KRLX 180200 AAA
TAFPKB
TAF AMD
KPKB 180214Z 1802/1824 00000KT P6SM SKC
     FM180600 00000KT 3/4SM BR SCT100
     FM180700 00000KT 1/2SM FG SCT001
      TEMPO 1809/1811 BKN001
     FM181400 02004KT 5SM BR SKC
     FM181500 02004KT P6SM FEW040=

USA.gov is the U.S. government's official web portal to all federal, state and local government web resources and services.